createdAt,value
2023-01-31T00:03:01.111Z,7.00
2023-01-31T00:06:26.047Z,7.00
2023-01-31T00:09:28.145Z,7.00
2023-01-31T00:12:30.317Z,7.00
2023-01-31T00:15:32.838Z,7.00
2023-01-31T00:18:36.056Z,7.00
2023-01-31T00:21:38.661Z,7.00
2023-01-31T00:24:40.883Z,7.00
2023-01-31T00:27:43.090Z,7.00
2023-01-31T00:30:46.872Z,7.00
2023-01-31T00:33:50.237Z,7.00
2023-01-31T00:36:52.522Z,7.00
2023-01-31T00:39:54.648Z,6.90
2023-01-31T00:42:56.778Z,7.00
2023-01-31T00:45:59.154Z,7.00
2023-01-31T00:49:02.178Z,7.00
2023-01-31T00:52:04.454Z,6.90
2023-01-31T00:55:07.124Z,7.00
2023-01-31T00:58:09.580Z,7.00
2023-01-31T01:01:14.117Z,7.00
2023-01-31T01:04:16.405Z,6.90
2023-01-31T01:07:18.627Z,6.90
2023-01-31T01:10:20.906Z,6.90
2023-01-31T01:13:23.284Z,6.90
2023-01-31T01:16:32.025Z,6.90
2023-01-31T01:19:34.323Z,6.90
2023-01-31T01:22:36.848Z,6.90
2023-01-31T01:25:45.354Z,6.90
2023-01-31T01:28:49.033Z,6.90
2023-01-31T01:31:51.313Z,6.90
2023-01-31T01:34:53.531Z,6.90
2023-01-31T01:37:56.428Z,6.90
2023-01-31T01:40:58.596Z,6.90
2023-01-31T01:44:02.434Z,6.90
2023-01-31T01:47:04.757Z,6.90
2023-01-31T01:50:15.856Z,6.90
2023-01-31T01:53:23.171Z,6.90
2023-01-31T01:56:32.602Z,6.90
2023-01-31T02:00:04.765Z,6.90
2023-01-31T02:03:17.556Z,6.90
2023-01-31T02:06:20.830Z,6.80
2023-01-31T02:09:33.126Z,6.90
2023-01-31T02:12:36.508Z,6.90
2023-01-31T02:15:38.822Z,6.90
2023-01-31T02:18:41.328Z,6.80
2023-01-31T02:21:58.593Z,6.90
2023-01-31T02:25:28.150Z,6.90
2023-01-31T02:29:03.319Z,6.90
2023-01-31T02:32:21.444Z,6.90
2023-01-31T02:35:47.997Z,6.80
2023-01-31T02:39:02.585Z,6.80
2023-01-31T02:42:27.991Z,6.80
2023-01-31T02:45:30.232Z,6.80
2023-01-31T02:48:53.068Z,6.80
2023-01-31T02:52:15.460Z,6.80
2023-01-31T02:56:08.930Z,6.80
2023-01-31T02:59:22.260Z,6.80
2023-01-31T03:02:26.543Z,6.80
2023-01-31T03:05:28.786Z,6.80
2023-01-31T03:08:31.532Z,6.80
2023-01-31T03:12:03.738Z,6.80
2023-01-31T03:15:13.639Z,6.80
2023-01-31T03:18:24.971Z,6.80
2023-01-31T03:21:34.807Z,6.80
2023-01-31T03:24:38.519Z,6.80
2023-01-31T03:27:45.733Z,6.80
2023-01-31T03:31:16.504Z,6.80
2023-01-31T03:34:19.322Z,6.80
2023-01-31T03:38:14.030Z,6.80
2023-01-31T03:41:31.148Z,6.80
2023-01-31T03:44:56.604Z,6.70
2023-01-31T03:48:03.619Z,6.70
2023-01-31T03:51:11.349Z,6.70
2023-01-31T03:54:20.243Z,6.70
2023-01-31T03:57:28.555Z,6.70
2023-01-31T04:00:34.691Z,6.70
2023-01-31T04:03:51.697Z,6.70
2023-01-31T04:06:55.399Z,6.70
2023-01-31T04:09:58.010Z,6.70
2023-01-31T04:13:01.627Z,6.70
2023-01-31T04:16:04.309Z,6.70
2023-01-31T04:19:06.583Z,6.70
2023-01-31T04:22:08.791Z,6.70
2023-01-31T04:25:11.480Z,6.70
2023-01-31T04:28:14.481Z,6.70
2023-01-31T04:31:16.877Z,6.70
2023-01-31T04:34:19.311Z,6.70
2023-01-31T04:37:21.477Z,6.70
2023-01-31T04:40:23.695Z,6.70
2023-01-31T04:43:25.849Z,6.70
2023-01-31T04:46:28.142Z,6.70
2023-01-31T04:49:30.379Z,6.70
2023-01-31T04:52:33.045Z,6.70
2023-01-31T04:55:36.437Z,6.70
2023-01-31T04:58:38.739Z,6.70
2023-01-31T05:01:42.266Z,6.70
2023-01-31T05:04:44.719Z,6.70
2023-01-31T05:07:47.377Z,6.70
2023-01-31T05:10:49.631Z,6.70
2023-01-31T05:13:51.867Z,6.70
2023-01-31T05:16:54.059Z,6.70
2023-01-31T05:19:57.047Z,6.60
2023-01-31T05:22:59.705Z,6.70
2023-01-31T05:26:02.123Z,6.70
2023-01-31T05:29:07.363Z,6.70
2023-01-31T05:32:09.766Z,6.70
2023-01-31T05:35:13.323Z,6.70
2023-01-31T05:38:15.755Z,6.60
2023-01-31T05:41:17.876Z,6.70
2023-01-31T05:44:20.674Z,6.60
2023-01-31T05:47:24.928Z,6.60
2023-01-31T05:50:27.510Z,6.60
2023-01-31T05:53:29.576Z,6.60
2023-01-31T05:56:32.365Z,6.60
2023-01-31T05:59:34.625Z,6.60
2023-01-31T06:02:36.811Z,6.60
2023-01-31T06:05:40.536Z,6.60
2023-01-31T06:08:43.184Z,6.60
2023-01-31T06:11:45.397Z,6.60
2023-01-31T06:14:47.933Z,6.60
2023-01-31T06:17:50.175Z,6.60
2023-01-31T06:20:53.420Z,6.60
2023-01-31T06:23:55.623Z,6.60
2023-01-31T06:26:58.260Z,6.60
2023-01-31T06:30:00.813Z,6.60
2023-01-31T06:33:03.631Z,6.60
2023-01-31T06:36:06.246Z,6.60
2023-01-31T06:39:08.480Z,6.60
2023-01-31T06:42:10.643Z,6.60
2023-01-31T06:45:13.123Z,6.60
2023-01-31T06:48:16.356Z,6.60
2023-01-31T06:51:18.496Z,6.60
2023-01-31T06:54:20.753Z,6.60
2023-01-31T06:57:22.980Z,6.60
2023-01-31T07:00:25.925Z,6.60
2023-01-31T07:03:28.056Z,6.60
2023-01-31T07:06:30.461Z,6.60
2023-01-31T07:09:32.679Z,6.60
2023-01-31T07:12:35.014Z,6.60
2023-01-31T07:15:37.105Z,6.60
2023-01-31T07:18:39.209Z,6.60
2023-01-31T07:21:42.379Z,6.60
2023-01-31T07:24:44.779Z,6.50
2023-01-31T07:27:47.030Z,6.60
2023-01-31T07:30:49.404Z,6.60
2023-01-31T07:33:51.627Z,6.50
2023-01-31T07:36:54.066Z,6.50
2023-01-31T07:39:56.280Z,6.60
2023-01-31T07:43:01.509Z,6.50
2023-01-31T07:46:09.558Z,6.50
2023-01-31T07:49:12.150Z,6.50
2023-01-31T07:52:14.432Z,6.50
2023-01-31T07:55:16.837Z,6.50
2023-01-31T07:58:18.949Z,6.50
2023-01-31T08:01:42.271Z,6.50
2023-01-31T08:04:44.453Z,6.50
2023-01-31T08:08:06.527Z,6.50
2023-01-31T08:11:08.881Z,6.50
2023-01-31T08:14:11.220Z,6.50
2023-01-31T08:17:13.464Z,6.50
2023-01-31T08:20:15.738Z,6.50
2023-01-31T08:23:18.041Z,6.50
2023-01-31T08:26:22.591Z,6.50
2023-01-31T08:29:25.535Z,6.50
2023-01-31T08:32:27.780Z,6.50
2023-01-31T08:35:30.339Z,6.50
2023-01-31T08:38:32.727Z,6.50
2023-01-31T08:41:36.950Z,6.50
2023-01-31T08:44:39.169Z,6.50
2023-01-31T08:47:41.668Z,6.50
2023-01-31T08:50:44.208Z,6.50
2023-01-31T08:53:46.422Z,6.50
2023-01-31T08:56:48.538Z,6.50
2023-01-31T08:59:50.696Z,6.50
2023-01-31T09:03:00.385Z,6.50
2023-01-31T09:06:05.361Z,6.50
2023-01-31T09:09:07.558Z,6.50
2023-01-31T09:12:09.650Z,6.50
2023-01-31T09:15:12.112Z,6.50
2023-01-31T09:18:14.424Z,6.50
2023-01-31T09:21:19.442Z,6.50
2023-01-31T09:24:21.598Z,6.50
2023-01-31T09:27:23.916Z,6.50
2023-01-31T09:30:26.007Z,6.50
2023-01-31T09:33:28.750Z,6.50
2023-01-31T09:36:31.120Z,6.50
2023-01-31T09:39:33.301Z,6.50
2023-01-31T09:42:39.793Z,6.50
2023-01-31T09:45:46.160Z,6.50
2023-01-31T09:48:52.814Z,6.50
2023-01-31T09:51:59.093Z,6.50
2023-01-31T09:55:01.581Z,6.50
2023-01-31T09:58:32.578Z,6.50
2023-01-31T10:01:58.154Z,6.50
2023-01-31T10:05:20.652Z,6.50
2023-01-31T10:08:47.351Z,6.50
2023-01-31T10:12:00.531Z,6.50
2023-01-31T10:15:06.655Z,6.50
2023-01-31T10:18:27.039Z,6.50
2023-01-31T10:21:32.905Z,6.50
2023-01-31T10:24:52.429Z,6.50
2023-01-31T10:27:57.560Z,6.50
2023-01-31T10:31:07.196Z,6.50
2023-01-31T10:34:29.117Z,6.50
2023-01-31T10:37:43.198Z,6.50
2023-01-31T10:40:54.205Z,6.50
2023-01-31T10:44:07.282Z,6.50
2023-01-31T10:47:18.283Z,6.50
2023-01-31T10:50:34.760Z,6.50
2023-01-31T10:53:57.802Z,6.50
2023-01-31T10:57:00.691Z,6.50
2023-01-31T11:00:04.388Z,6.50
2023-01-31T11:03:06.916Z,6.50
2023-01-31T11:06:12.342Z,6.50
2023-01-31T11:09:15.487Z,6.50
2023-01-31T11:12:18.530Z,6.50
2023-01-31T11:15:23.498Z,6.50
2023-01-31T11:18:28.176Z,6.50
2023-01-31T11:21:35.305Z,6.50
2023-01-31T11:28:22.305Z,6.50
2023-01-31T11:31:34.950Z,6.50
2023-01-31T11:34:37.767Z,6.50
2023-01-31T11:37:53.706Z,6.60
2023-01-31T11:40:56.129Z,6.60
2023-01-31T11:44:07.297Z,6.60
2023-01-31T11:47:13.411Z,6.60
2023-01-31T11:50:34.232Z,6.60
2023-01-31T11:53:36.332Z,6.60
2023-01-31T11:56:38.891Z,6.60
2023-01-31T11:59:41.248Z,6.60
2023-01-31T12:02:43.630Z,6.60
2023-01-31T12:05:51.754Z,6.60
2023-01-31T12:08:55.655Z,6.60
2023-01-31T12:12:00.699Z,6.60
2023-01-31T12:15:06.070Z,6.60
2023-01-31T12:18:11.124Z,6.60
2023-01-31T12:21:34.728Z,6.60
2023-01-31T12:24:39.993Z,6.60
2023-01-31T12:27:56.512Z,6.60
2023-01-31T12:31:23.695Z,6.60
2023-01-31T12:35:02.469Z,6.60
2023-01-31T12:38:44.160Z,6.60
2023-01-31T12:42:35.632Z,6.60
2023-01-31T12:46:13.127Z,6.60
2023-01-31T12:49:24.425Z,6.60
2023-01-31T12:52:49.749Z,6.60
2023-01-31T12:56:10.199Z,6.60
2023-01-31T12:59:37.293Z,6.70
2023-01-31T13:03:11.781Z,6.60
2023-01-31T13:06:23.544Z,6.70
2023-01-31T13:09:33.469Z,6.70
2023-01-31T13:12:37.338Z,6.60
2023-01-31T13:15:51.711Z,6.70
2023-01-31T13:18:57.207Z,6.70
2023-01-31T13:22:03.746Z,6.70
2023-01-31T13:25:28.899Z,6.70
2023-01-31T13:28:57.101Z,6.70
2023-01-31T13:32:08.920Z,6.70
2023-01-31T13:35:19.917Z,6.70
2023-01-31T13:38:23.995Z,6.70
2023-01-31T13:41:26.118Z,6.70
2023-01-31T13:44:28.319Z,6.70
2023-01-31T13:47:39.396Z,6.70
2023-01-31T13:51:00.121Z,6.70
2023-01-31T13:54:21.604Z,6.70
2023-01-31T13:57:29.195Z,6.70
2023-01-31T14:00:37.489Z,6.70
2023-01-31T14:04:14.777Z,6.70
2023-01-31T14:07:19.574Z,6.80
2023-01-31T14:10:21.772Z,6.70
2023-01-31T14:13:36.122Z,6.80
2023-01-31T14:16:38.757Z,6.80
2023-01-31T14:19:43.632Z,6.70
2023-01-31T14:23:24.358Z,6.80
2023-01-31T14:26:44.844Z,6.80
2023-01-31T14:29:51.458Z,6.80
2023-01-31T14:33:12.183Z,6.80
2023-01-31T14:36:23.666Z,6.80
2023-01-31T14:39:51.433Z,6.80
2023-01-31T14:43:20.490Z,6.80
2023-01-31T14:47:05.049Z,6.80
2023-01-31T14:50:30.553Z,6.80
2023-01-31T14:54:06.649Z,6.80
2023-01-31T14:57:25.904Z,6.80
2023-01-31T15:00:35.917Z,6.90
2023-01-31T15:03:40.258Z,6.90
2023-01-31T15:06:44.549Z,6.90
2023-01-31T15:09:49.565Z,6.90
2023-01-31T15:13:00.920Z,6.90
2023-01-31T15:16:23.354Z,6.90
2023-01-31T15:19:27.354Z,6.90
2023-01-31T15:22:31.126Z,6.90
2023-01-31T15:25:36.053Z,6.90
2023-01-31T15:28:42.474Z,6.90
2023-01-31T15:31:48.608Z,6.90
2023-01-31T15:35:01.113Z,6.90
2023-01-31T15:38:19.326Z,6.90
2023-01-31T15:41:25.278Z,7.00
2023-01-31T15:44:29.333Z,7.00
2023-01-31T15:47:32.819Z,6.90
2023-01-31T15:50:35.468Z,7.00
2023-01-31T15:53:37.677Z,7.00
2023-01-31T15:56:42.027Z,7.00
2023-01-31T15:59:48.275Z,7.00
2023-01-31T16:02:50.597Z,7.00
2023-01-31T16:05:55.564Z,7.00
2023-01-31T16:09:01.469Z,7.00
2023-01-31T16:12:04.356Z,7.00
2023-01-31T16:15:08.542Z,7.00
2023-01-31T16:18:12.652Z,7.00
2023-01-31T16:21:33.706Z,7.00
2023-01-31T16:24:35.960Z,7.00
2023-01-31T16:27:41.438Z,7.00
2023-01-31T16:30:44.341Z,7.00
2023-01-31T16:33:57.563Z,7.10
2023-01-31T16:37:05.101Z,7.10
2023-01-31T16:40:29.621Z,7.10
2023-01-31T16:43:33.843Z,7.10
2023-01-31T16:46:41.711Z,7.20
2023-01-31T16:49:43.946Z,7.20
2023-01-31T16:52:53.124Z,7.20
2023-01-31T16:56:13.775Z,7.20
2023-01-31T16:59:34.303Z,7.30
2023-01-31T17:02:41.362Z,7.30
2023-01-31T17:05:47.245Z,7.30
2023-01-31T17:08:50.116Z,7.30
2023-01-31T17:11:54.785Z,7.30
2023-01-31T17:15:00.782Z,7.30
2023-01-31T17:18:04.012Z,7.30
2023-01-31T17:21:07.066Z,7.30
2023-01-31T17:24:14.670Z,7.30
2023-01-31T17:27:18.938Z,7.30
2023-01-31T17:30:22.501Z,7.40
2023-01-31T17:33:24.762Z,7.40
2023-01-31T17:36:26.973Z,7.40
2023-01-31T17:39:29.277Z,7.40
2023-01-31T17:42:31.562Z,7.40
2023-01-31T17:45:34.124Z,7.40
2023-01-31T17:48:36.252Z,7.40
2023-01-31T17:51:38.548Z,7.40
2023-01-31T17:54:40.859Z,7.40
2023-01-31T17:57:43.218Z,7.40
2023-01-31T18:00:46.904Z,7.40
2023-01-31T18:03:49.259Z,7.40
2023-01-31T18:06:51.471Z,7.40
2023-01-31T18:09:53.721Z,7.40
2023-01-31T18:12:55.914Z,7.40
2023-01-31T18:16:13.532Z,7.40
2023-01-31T18:19:15.775Z,7.40
2023-01-31T18:22:18.058Z,7.40
2023-01-31T18:25:20.624Z,7.40
2023-01-31T18:28:23.033Z,7.40
2023-01-31T18:31:25.548Z,7.40
2023-01-31T18:34:28.304Z,7.40
2023-01-31T18:37:30.455Z,7.40
2023-01-31T18:40:33.367Z,7.40
2023-01-31T18:43:36.376Z,7.40
2023-01-31T18:46:38.923Z,7.40
2023-01-31T18:49:41.383Z,7.40
2023-01-31T18:52:44.083Z,7.40
2023-01-31T18:55:46.335Z,7.40
2023-01-31T18:58:49.986Z,7.40
2023-01-31T19:01:53.904Z,7.40
2023-01-31T19:04:56.186Z,7.40
2023-01-31T19:07:58.432Z,7.40
2023-01-31T19:11:15.115Z,7.40
2023-01-31T19:14:17.357Z,7.50
2023-01-31T19:17:20.571Z,7.40
2023-01-31T19:20:22.771Z,7.40
2023-01-31T19:23:25.862Z,7.40
2023-01-31T19:26:29.843Z,7.40
2023-01-31T19:29:32.228Z,7.40
2023-01-31T19:32:34.389Z,7.40
2023-01-31T19:35:36.551Z,7.40
2023-01-31T19:38:38.792Z,7.40
2023-01-31T19:41:42.700Z,7.40
2023-01-31T19:44:44.935Z,7.40
2023-01-31T19:47:47.126Z,7.40
2023-01-31T19:50:49.307Z,7.40
2023-01-31T19:53:55.069Z,7.40
2023-01-31T19:56:57.396Z,7.40
2023-01-31T19:59:59.672Z,7.40
2023-01-31T20:03:01.980Z,7.40
2023-01-31T20:06:07.935Z,7.40
2023-01-31T20:09:14.873Z,7.40
2023-01-31T20:12:16.986Z,7.40
2023-01-31T20:15:19.519Z,7.40
2023-01-31T20:18:21.711Z,7.40
2023-01-31T20:21:24.136Z,7.40
2023-01-31T20:24:26.369Z,7.40
2023-01-31T20:27:28.688Z,7.40
2023-01-31T20:30:31.407Z,7.40
2023-01-31T20:33:34.229Z,7.40
2023-01-31T20:36:36.459Z,7.40
2023-01-31T20:39:38.705Z,7.40
2023-01-31T20:42:40.907Z,7.40
2023-01-31T20:45:43.085Z,7.40
2023-01-31T20:48:45.561Z,7.40
2023-01-31T20:51:47.804Z,7.40
2023-01-31T20:54:50.665Z,7.40
2023-01-31T20:57:52.899Z,7.40
2023-01-31T21:00:56.127Z,7.40
2023-01-31T21:03:58.317Z,7.40
2023-01-31T21:07:00.536Z,7.40
2023-01-31T21:10:02.793Z,7.40
2023-01-31T21:13:05.299Z,7.40
2023-01-31T21:16:10.711Z,7.40
2023-01-31T21:19:12.988Z,7.40
2023-01-31T21:22:15.591Z,7.40
2023-01-31T21:25:17.919Z,7.40
2023-01-31T21:28:20.150Z,7.40
2023-01-31T21:31:22.442Z,7.40
2023-01-31T21:34:27.223Z,7.40
2023-01-31T21:37:29.398Z,7.40
2023-01-31T21:40:31.938Z,7.40
2023-01-31T21:43:35.180Z,7.40
2023-01-31T21:46:37.428Z,7.40
2023-01-31T21:49:40.057Z,7.40
2023-01-31T21:52:42.159Z,7.40
2023-01-31T21:55:44.459Z,7.40
2023-01-31T21:58:47.367Z,7.40
2023-01-31T22:01:51.700Z,7.40
2023-01-31T22:04:53.981Z,7.40
2023-01-31T22:07:56.220Z,7.40
2023-01-31T22:11:03.143Z,7.40
2023-01-31T22:14:08.851Z,7.40
2023-01-31T22:17:11.081Z,7.40
2023-01-31T22:20:15.951Z,7.40
2023-01-31T22:23:18.166Z,7.30
2023-01-31T22:26:31.112Z,7.40
2023-01-31T22:29:33.328Z,7.30
2023-01-31T22:32:35.496Z,7.40
2023-01-31T22:35:37.692Z,7.40
2023-01-31T22:38:40.494Z,7.30
2023-01-31T22:41:44.735Z,7.40
2023-01-31T22:44:46.976Z,7.40
2023-01-31T22:47:49.154Z,7.30
2023-01-31T22:50:59.866Z,7.40
2023-01-31T22:54:01.968Z,7.30
2023-01-31T22:57:04.162Z,7.30
2023-01-31T23:00:07.112Z,7.30
2023-01-31T23:03:09.334Z,7.30
2023-01-31T23:06:12.194Z,7.30
2023-01-31T23:09:14.400Z,7.30
2023-01-31T23:12:16.600Z,7.30
2023-01-31T23:15:19.604Z,7.30
2023-01-31T23:18:21.692Z,7.30
2023-01-31T23:21:23.937Z,7.30
2023-01-31T23:24:26.260Z,7.30
2023-01-31T23:27:28.686Z,7.30
2023-01-31T23:30:30.955Z,7.30
2023-01-31T23:33:33.185Z,7.30
2023-01-31T23:36:35.670Z,7.30
2023-01-31T23:39:37.947Z,7.30
2023-01-31T23:42:40.162Z,7.30
2023-01-31T23:45:43.164Z,7.30
2023-01-31T23:48:45.491Z,7.30
2023-01-31T23:51:47.803Z,7.30
2023-01-31T23:54:49.959Z,7.30
2023-01-31T23:57:52.125Z,7.30
